Time;durP1;ratioP1;P1;durP2;ratioP2;P2;SDS_P1;SDS_P2;PMS_P1;PMS_P2;Temp;Humidity;BMP_temperature;BMP_pressure;BME280_temperature;BME280_humidity;BME280_pressure;Samples;Min_cycle;Max_cycle;Signal;HPM_P1;HPM_P2
2024/01/31 00:01:19;;;;;;;1.90;1.13;;;22.00;33.40;;;;;;5019556;28;21676;-58
2024/01/31 00:03:46;;;;;;;1.73;1.23;;;22.00;33.40;;;;;;5019487;28;20057;-61
2024/01/31 00:06:14;;;;;;;1.92;1.20;;;22.00;33.40;;;;;;5015677;28;20398;-61
2024/01/31 00:08:41;;;;;;;2.92;1.50;;;22.00;33.40;;;;;;5020781;28;20076;-60
2024/01/31 00:11:10;;;;;;;2.30;1.10;;;21.90;33.30;;;;;;5021293;28;20053;-61
2024/01/31 00:13:37;;;;;;;2.60;1.10;;;21.90;33.30;;;;;;5020007;28;20061;-62
2024/01/31 00:16:05;;;;;;;1.30;1.10;;;21.90;33.30;;;;;;5021302;28;20794;-61
2024/01/31 00:18:32;;;;;;;2.08;1.20;;;21.90;33.40;;;;;;5019696;28;20050;-61
2024/01/31 00:20:59;;;;;;;2.25;1.00;;;21.90;33.40;;;;;;5016371;28;20053;-61
2024/01/31 00:23:26;;;;;;;2.83;1.33;;;21.90;33.50;;;;;;5015493;28;20054;-61
2024/01/31 00:25:54;;;;;;;1.75;1.15;;;21.90;33.50;;;;;;5015544;28;20423;-61
2024/01/31 00:28:22;;;;;;;1.60;1.08;;;21.90;33.60;;;;;;5020552;28;20050;-61
2024/01/31 00:30:49;;;;;;;2.50;1.10;;;21.90;33.60;;;;;;5017702;28;20073;-61
2024/01/31 00:33:16;;;;;;;2.05;0.90;;;21.90;33.50;;;;;;5019230;28;20049;-61
2024/01/31 00:35:44;;;;;;;1.70;1.05;;;22.00;33.60;;;;;;5019676;28;20534;-61
2024/01/31 00:38:11;;;;;;;2.13;1.30;;;22.00;33.50;;;;;;5025829;28;20409;-62
2024/01/31 00:40:38;;;;;;;2.47;1.10;;;22.00;33.50;;;;;;5015763;28;20062;-61
2024/01/31 00:43:06;;;;;;;3.03;1.45;;;22.00;33.50;;;;;;5019756;28;20616;-62
2024/01/31 00:45:34;;;;;;;1.58;1.20;;;22.00;33.50;;;;;;5019885;28;20048;-62
2024/01/31 00:48:01;;;;;;;2.05;1.02;;;22.00;33.50;;;;;;5022346;28;20056;-61
2024/01/31 00:50:29;;;;;;;2.72;1.27;;;22.00;33.50;;;;;;5020830;28;20064;-61
2024/01/31 00:52:56;;;;;;;2.50;1.30;;;22.00;33.40;;;;;;5019575;28;20119;-61
2024/01/31 00:55:23;;;;;;;1.65;1.20;;;22.00;33.40;;;;;;5023244;28;20048;-61
2024/01/31 00:57:50;;;;;;;3.70;1.38;;;22.10;33.40;;;;;;5020670;28;20058;-61
2024/01/31 01:00:18;;;;;;;3.65;1.50;;;22.00;33.40;;;;;;5020081;28;20537;-61
2024/01/31 01:02:46;;;;;;;3.17;1.50;;;22.10;33.40;;;;;;5016843;28;20429;-61
2024/01/31 01:05:13;;;;;;;2.22;1.40;;;22.10;33.40;;;;;;5022080;28;20053;-62
2024/01/31 01:07:43;;;;;;;2.03;1.20;;;22.00;33.40;;;;;;5022229;28;20045;-61
2024/01/31 01:10:12;;;;;;;2.72;1.40;;;22.00;33.40;;;;;;5020568;28;20393;-60
2024/01/31 01:12:41;;;;;;;2.25;1.70;;;22.00;33.40;;;;;;5018058;28;20053;-60
2024/01/31 01:15:10;;;;;;;1.98;1.42;;;22.00;33.90;;;;;;5017938;28;20041;-61
2024/01/31 01:17:38;;;;;;;3.05;1.52;;;22.00;33.40;;;;;;5025892;28;20050;-61
2024/01/31 01:20:08;;;;;;;2.83;1.60;;;22.00;33.40;;;;;;5015431;28;20056;-60
2024/01/31 01:22:35;;;;;;;2.25;1.67;;;22.00;33.50;;;;;;5021156;28;20060;-61
2024/01/31 01:25:03;;;;;;;2.28;1.50;;;21.90;33.40;;;;;;5020945;28;20405;-60
2024/01/31 01:27:30;;;;;;;5.18;2.20;;;21.90;33.40;;;;;;5015376;28;20061;-59
2024/01/31 01:29:57;;;;;;;3.45;2.08;;;21.90;33.40;;;;;;5022907;28;20071;-60
2024/01/31 01:32:25;;;;;;;2.05;1.85;;;21.90;33.40;;;;;;5017437;28;20050;-60
2024/01/31 01:34:52;;;;;;;3.08;2.00;;;21.80;33.40;;;;;;5023960;28;20045;-59
2024/01/31 01:37:20;;;;;;;2.80;1.63;;;21.80;33.40;;;;;;5020039;28;20049;-60
2024/01/31 01:39:48;;;;;;;2.90;2.22;;;21.80;33.50;;;;;;5018533;28;20072;-60
2024/01/31 01:42:15;;;;;;;3.75;2.15;;;21.70;33.40;;;;;;5021083;28;20056;-60
2024/01/31 01:44:45;;;;;;;3.10;2.22;;;21.70;33.40;;;;;;5016018;28;20402;-59
2024/01/31 01:47:14;;;;;;;2.20;2.00;;;21.70;33.50;;;;;;5023189;28;20493;-60
2024/01/31 01:49:41;;;;;;;2.45;1.92;;;21.70;33.50;;;;;;5022775;28;20049;-60
2024/01/31 01:52:09;;;;;;;2.53;2.10;;;21.70;33.50;;;;;;5022747;28;20417;-59
2024/01/31 01:54:39;;;;;;;2.72;1.95;;;21.60;33.50;;;;;;5020349;28;20326;-60
2024/01/31 01:57:07;;;;;;;3.40;2.53;;;21.60;33.50;;;;;;5020577;28;20057;-59
2024/01/31 01:59:36;;;;;;;5.13;2.90;;;21.60;33.50;;;;;;5019925;28;20054;-60
2024/01/31 02:02:04;;;;;;;4.15;2.60;;;21.60;33.50;;;;;;5016547;28;20060;-60
2024/01/31 02:04:31;;;;;;;3.40;2.60;;;21.60;33.60;;;;;;5016122;28;20962;-60
2024/01/31 02:06:58;;;;;;;2.75;2.45;;;21.50;33.50;;;;;;5021243;28;20058;-60
2024/01/31 02:09:26;;;;;;;3.30;2.50;;;21.50;33.50;;;;;;5021319;28;20049;-60
2024/01/31 02:11:55;;;;;;;3.78;2.70;;;21.40;33.50;;;;;;5016406;28;20049;-60
2024/01/31 02:14:22;;;;;;;3.60;2.60;;;21.40;33.60;;;;;;5023386;28;20046;-59
2024/01/31 02:16:49;;;;;;;2.60;2.38;;;21.40;33.60;;;;;;5022686;28;20061;-60
2024/01/31 02:19:16;;;;;;;4.13;2.40;;;21.40;33.70;;;;;;5015452;28;20050;-59
2024/01/31 02:21:44;;;;;;;3.92;2.10;;;21.50;33.80;;;;;;5022637;28;20045;-59
2024/01/31 02:24:13;;;;;;;3.45;2.15;;;21.40;33.80;;;;;;5015895;28;20057;-60
2024/01/31 02:26:40;;;;;;;3.10;2.08;;;21.40;33.80;;;;;;5019996;28;20053;-59
2024/01/31 02:29:07;;;;;;;2.65;1.80;;;21.50;33.80;;;;;;5020121;28;20380;-59
2024/01/31 02:31:34;;;;;;;2.88;2.20;;;21.50;33.80;;;;;;5020716;28;20064;-59
2024/01/31 02:34:01;;;;;;;2.70;2.17;;;21.50;33.80;;;;;;5022987;28;20413;-59
2024/01/31 02:36:29;;;;;;;3.20;2.47;;;21.50;33.80;;;;;;5018167;28;20056;-59
2024/01/31 02:38:56;;;;;;;3.47;2.53;;;21.60;33.90;;;;;;5022206;28;20053;-59
2024/01/31 02:41:24;;;;;;;5.05;2.60;;;21.60;33.80;;;;;;5017138;28;20062;-59
2024/01/31 02:43:52;;;;;;;3.00;2.58;;;21.60;33.80;;;;;;5013067;28;20057;-60
2024/01/31 02:46:19;;;;;;;4.68;3.00;;;21.60;33.80;;;;;;5018069;28;20046;-59
2024/01/31 02:48:48;;;;;;;3.30;2.70;;;21.60;33.80;;;;;;5019002;28;20042;-60
2024/01/31 02:51:16;;;;;;;3.72;2.60;;;21.60;33.80;;;;;;5016450;28;20053;-60
2024/01/31 02:53:43;;;;;;;5.65;3.20;;;21.60;33.70;;;;;;5019124;28;20053;-60
2024/01/31 02:56:10;;;;;;;4.38;3.10;;;21.70;33.80;;;;;;5014157;28;20057;-59
2024/01/31 02:58:39;;;;;;;4.38;3.42;;;21.60;33.70;;;;;;5017260;28;20484;-60
2024/01/31 03:01:07;;;;;;;4.40;3.28;;;21.60;33.70;;;;;;5016306;28;20049;-58
2024/01/31 03:03:34;;;;;;;4.47;3.60;;;21.60;33.70;;;;;;5020755;28;20053;-60
2024/01/31 03:06:01;;;;;;;4.38;3.60;;;21.60;33.70;;;;;;5013851;28;20056;-58
2024/01/31 03:08:29;;;;;;;5.05;3.20;;;21.60;33.70;;;;;;5017273;28;20065;-60
2024/01/31 03:10:56;;;;;;;3.92;2.78;;;21.60;33.70;;;;;;5013893;28;20057;-59
2024/01/31 03:13:23;;;;;;;4.65;3.00;;;21.60;33.80;;;;;;5018609;28;20382;-60
2024/01/31 03:15:52;;;;;;;4.07;2.83;;;21.70;33.80;;;;;;5021673;28;20053;-60
2024/01/31 03:18:19;;;;;;;2.75;2.50;;;21.70;33.80;;;;;;5017325;28;20060;-60
2024/01/31 03:20:46;;;;;;;2.67;2.30;;;21.70;33.80;;;;;;5019263;28;20410;-58
2024/01/31 03:23:22;;;;;;;3.80;3.05;;;21.80;33.90;;;;;;5018957;28;20049;-59
2024/01/31 03:25:50;;;;;;;6.80;3.22;;;21.80;33.80;;;;;;5012399;28;20072;-58
2024/01/31 03:28:17;;;;;;;4.38;3.30;;;21.80;33.80;;;;;;5017257;28;20410;-59
2024/01/31 03:30:45;;;;;;;4.75;3.30;;;21.80;33.80;;;;;;5019681;28;20061;-59
2024/01/31 03:33:13;;;;;;;4.90;3.80;;;21.90;33.80;;;;;;5013825;28;20068;-59
2024/01/31 03:35:41;;;;;;;5.00;3.90;;;21.80;33.70;;;;;;5017949;28;20057;-60
2024/01/31 03:38:09;;;;;;;5.47;4.00;;;21.90;33.80;;;;;;5015945;28;20061;-59
2024/01/31 03:40:37;;;;;;;5.30;3.90;;;21.90;33.70;;;;;;5016431;28;20054;-60
2024/01/31 03:43:05;;;;;;;5.38;3.80;;;21.90;33.70;;;;;;5015590;28;20065;-59
2024/01/31 03:45:32;;;;;;;5.93;4.63;;;21.90;33.70;;;;;;5018177;28;20409;-59
2024/01/31 03:47:59;;;;;;;5.57;4.47;;;21.90;33.70;;;;;;5017711;28;20056;-58
2024/01/31 03:50:28;;;;;;;7.72;5.05;;;21.90;33.70;;;;;;5016198;28;20053;-58
2024/01/31 03:52:55;;;;;;;6.32;4.82;;;21.90;33.70;;;;;;5020309;28;20065;-56
2024/01/31 03:55:22;;;;;;;6.05;5.07;;;21.90;33.70;;;;;;5019845;28;20057;-56
2024/01/31 03:57:50;;;;;;;6.53;5.05;;;21.90;33.70;;;;;;5016674;28;20060;-58
2024/01/31 04:00:17;;;;;;;5.32;4.43;;;21.90;33.70;;;;;;5014226;28;20057;-56
2024/01/31 04:02:44;;;;;;;7.80;5.22;;;21.90;33.70;;;;;;5017236;28;20053;-57
2024/01/31 04:05:11;;;;;;;5.55;4.22;;;21.90;33.70;;;;;;5014707;28;20053;-58
2024/01/31 04:07:40;;;;;;;5.88;4.75;;;21.90;33.60;;;;;;5017780;28;20046;-58
2024/01/31 04:10:08;;;;;;;21.77;4.22;;;21.80;33.60;;;;;;5019696;28;20061;-59
2024/01/31 04:12:35;;;;;;;8.48;4.53;;;21.80;33.70;;;;;;5019136;28;20057;-59
2024/01/31 04:15:02;;;;;;;8.60;5.63;;;21.80;33.70;;;;;;5017350;28;20065;-59
2024/01/31 04:17:30;;;;;;;11.48;5.40;;;21.80;33.80;;;;;;5024761;28;20486;-59
2024/01/31 04:19:57;;;;;;;12.52;5.03;;;21.80;33.80;;;;;;5022690;28;20050;-57
2024/01/31 04:22:24;;;;;;;10.68;6.05;;;21.80;33.80;;;;;;5023261;28;20056;-58
2024/01/31 04:24:53;;;;;;;8.13;5.85;;;21.80;33.80;;;;;;5021235;28;20062;-55
2024/01/31 04:27:20;;;;;;;7.05;5.40;;;21.80;33.90;;;;;;5023580;28;20056;-58
2024/01/31 04:29:47;;;;;;;6.93;5.65;;;21.70;33.90;;;;;;5030018;28;20489;-58
2024/01/31 04:32:15;;;;;;;6.20;4.95;;;21.80;33.90;;;;;;5027901;28;20049;-58
2024/01/31 04:34:42;;;;;;;7.05;5.07;;;21.70;34.00;;;;;;5024911;28;20057;-58
2024/01/31 04:37:09;;;;;;;5.30;4.47;;;21.80;34.00;;;;;;5023636;28;20132;-57
2024/01/31 04:39:37;;;;;;;6.13;4.80;;;21.80;34.00;;;;;;5022852;28;20056;-58
2024/01/31 04:42:06;;;;;;;5.72;4.68;;;21.80;34.00;;;;;;5020557;28;20636;-60
2024/01/31 04:44:33;;;;;;;6.50;4.57;;;21.90;34.00;;;;;;5022049;28;20049;-57
2024/01/31 04:47:00;;;;;;;7.65;5.38;;;21.90;34.00;;;;;;5022192;28;20045;-58
2024/01/31 04:49:28;;;;;;;6.25;4.32;;;21.90;33.90;;;;;;5027753;28;20072;-57
2024/01/31 04:51:55;;;;;;;7.55;4.47;;;21.90;33.90;;;;;;5022040;28;20061;-60
2024/01/31 04:54:22;;;;;;;7.88;4.00;;;22.00;34.00;;;;;;5022591;28;20058;-58
2024/01/31 04:56:50;;;;;;;10.85;4.38;;;22.00;34.10;;;;;;5023110;28;20053;-59
2024/01/31 04:59:19;;;;;;;12.15;5.00;;;22.10;34.10;;;;;;5023093;28;20060;-61
2024/01/31 05:01:46;;;;;;;12.80;4.30;;;22.10;34.10;;;;;;5022962;28;20064;-60
2024/01/31 05:04:13;;;;;;;8.32;4.53;;;22.20;34.10;;;;;;5022520;28;20061;-61
2024/01/31 05:06:41;;;;;;;10.68;5.35;;;22.20;34.00;;;;;;5018849;28;20053;-60
2024/01/31 05:09:08;;;;;;;16.67;11.90;;;22.20;34.00;;;;;;5019438;28;20418;-57
2024/01/31 05:11:36;;;;;;;32.20;20.77;;;22.30;33.90;;;;;;5020613;28;20488;-58
2024/01/31 05:14:03;;;;;;;19.10;11.27;;;22.30;33.90;;;;;;5019878;28;20506;-58
2024/01/31 05:16:31;;;;;;;13.52;9.45;;;22.30;33.90;;;;;;5022494;28;20045;-58
2024/01/31 05:18:59;;;;;;;12.32;9.10;;;22.30;33.90;;;;;;5022326;28;20062;-59
2024/01/31 05:21:26;;;;;;;21.15;8.85;;;22.30;33.90;;;;;;5022444;28;20057;-57
2024/01/31 05:23:53;;;;;;;11.35;8.63;;;22.40;34.00;;;;;;5020953;28;20409;-59
2024/01/31 05:26:20;;;;;;;15.07;8.43;;;22.30;33.80;;;;;;5022448;28;20489;-58
2024/01/31 05:28:47;;;;;;;13.85;8.27;;;22.30;33.80;;;;;;5018826;28;20557;-57
2024/01/31 05:31:14;;;;;;;11.55;7.00;;;22.30;33.80;;;;;;5016720;28;20052;-58
2024/01/31 05:33:43;;;;;;;11.07;7.85;;;22.30;33.80;;;;;;5020368;28;20049;-58
2024/01/31 05:36:10;;;;;;;10.82;7.60;;;22.30;33.80;;;;;;5023294;28;20500;-56
2024/01/31 05:38:37;;;;;;;43.08;27.13;;;22.30;33.70;;;;;;5020990;28;20099;-57
2024/01/31 05:41:05;;;;;;;36.10;19.98;;;22.30;33.70;;;;;;5018351;28;20064;-58
2024/01/31 05:43:32;;;;;;;22.20;15.80;;;22.30;33.70;;;;;;5024484;28;20053;-54
2024/01/31 05:45:59;;;;;;;17.05;12.50;;;22.30;33.80;;;;;;5022372;28;21190;-58
2024/01/31 05:48:26;;;;;;;14.90;10.75;;;22.20;33.80;;;;;;5021375;28;20058;-58
2024/01/31 05:50:55;;;;;;;20.17;11.50;;;22.20;33.80;;;;;;5019792;28;20052;-58
2024/01/31 05:53:22;;;;;;;17.55;10.98;;;22.20;33.90;;;;;;5018069;28;20064;-57
2024/01/31 05:55:49;;;;;;;15.27;10.02;;;22.20;33.90;;;;;;5018820;28;20050;-54
2024/01/31 05:58:17;;;;;;;13.02;9.35;;;22.20;33.80;;;;;;5024167;28;20053;-57
2024/01/31 06:00:46;;;;;;;12.38;9.63;;;22.20;33.80;;;;;;5025887;28;20423;-58
2024/01/31 06:03:15;;;;;;;27.20;13.93;;;22.10;33.70;;;;;;5023439;28;20694;-58
2024/01/31 06:05:42;;;;;;;21.65;14.98;;;22.10;33.80;;;;;;5018229;28;20049;-57
2024/01/31 06:08:10;;;;;;;17.25;11.35;;;22.10;33.80;;;;;;5015822;28;20046;-57
2024/01/31 06:10:38;;;;;;;14.88;10.25;;;22.10;33.80;;;;;;5023523;28;20057;-58
2024/01/31 06:13:05;;;;;;;11.15;8.68;;;22.00;33.80;;;;;;5018307;28;20117;-57
2024/01/31 06:15:34;;;;;;;13.73;9.75;;;22.00;33.80;;;;;;5018708;28;20053;-57
2024/01/31 06:18:01;;;;;;;12.95;9.60;;;22.00;33.90;;;;;;5021978;28;20053;-59
2024/01/31 06:20:28;;;;;;;12.80;9.18;;;22.00;33.90;;;;;;5016910;28;20168;-59
2024/01/31 06:22:56;;;;;;;14.85;8.15;;;22.00;33.90;;;;;;5021476;28;20103;-60
2024/01/31 06:25:25;;;;;;;11.48;8.38;;;22.00;34.00;;;;;;5016381;28;20790;-58
2024/01/31 06:27:52;;;;;;;16.92;9.38;;;22.00;34.00;;;;;;5018427;28;20489;-58
2024/01/31 06:30:21;;;;;;;16.13;9.40;;;22.10;34.10;;;;;;5019225;28;20501;-58
2024/01/31 06:32:48;;;;;;;13.10;7.88;;;22.10;34.10;;;;;;5021501;28;20060;-56
2024/01/31 06:35:15;;;;;;;11.32;7.55;;;22.10;34.00;;;;;;5019714;28;20057;-56
2024/01/31 06:37:43;;;;;;;16.45;8.50;;;22.10;34.00;;;;;;5013199;28;20049;-58
2024/01/31 06:40:11;;;;;;;10.70;7.20;;;22.20;34.00;;;;;;5018349;28;20053;-59
2024/01/31 06:42:39;;;;;;;14.90;7.32;;;22.20;34.00;;;;;;5019236;28;20053;-60
2024/01/31 06:45:07;;;;;;;19.48;8.65;;;22.20;34.00;;;;;;5022571;28;20060;-59
2024/01/31 06:47:34;;;;;;;12.27;7.90;;;22.20;34.00;;;;;;5016688;28;20565;-61
2024/01/31 06:50:01;;;;;;;21.95;9.85;;;22.20;33.90;;;;;;5021452;28;20513;-61
2024/01/31 06:52:29;;;;;;;12.25;8.75;;;22.30;33.90;;;;;;5022492;28;20060;-59
2024/01/31 06:54:56;;;;;;;14.80;8.73;;;22.30;33.90;;;;;;5021118;28;20064;-63
2024/01/31 06:57:23;;;;;;;13.77;8.25;;;22.30;33.90;;;;;;5020400;28;20052;-59
2024/01/31 06:59:52;;;;;;;19.48;7.93;;;22.30;33.90;;;;;;5014112;28;20121;-61
2024/01/31 07:02:19;;;;;;;13.93;8.93;;;22.20;33.90;;;;;;5015308;28;20049;-58
2024/01/31 07:04:46;;;;;;;12.60;7.57;;;22.20;33.90;;;;;;5018824;28;20498;-61
2024/01/31 07:07:14;;;;;;;10.57;7.00;;;22.30;33.90;;;;;;5022842;28;20321;-64
2024/01/31 07:09:41;;;;;;;18.73;7.97;;;22.20;33.90;;;;;;5017553;28;20060;-59
2024/01/31 07:12:09;;;;;;;15.27;8.35;;;22.20;33.90;;;;;;5022660;28;20053;-60
2024/01/31 07:14:37;;;;;;;15.15;8.27;;;22.20;33.90;;;;;;5020020;28;20049;-59
2024/01/31 07:17:05;;;;;;;15.07;7.18;;;22.20;33.90;;;;;;5021580;28;20405;-58
2024/01/31 07:19:33;;;;;;;14.75;8.48;;;22.20;33.90;;;;;;5017303;28;20433;-61
2024/01/31 07:22:00;;;;;;;18.75;7.03;;;22.20;33.90;;;;;;5021611;28;20053;-63
2024/01/31 07:24:28;;;;;;;42.00;8.75;;;22.20;33.90;;;;;;5019975;28;20062;-61
2024/01/31 07:26:56;;;;;;;20.95;10.57;;;22.20;34.00;;;;;;5021345;28;20072;-61
2024/01/31 07:29:23;;;;;;;19.33;10.38;;;22.20;33.90;;;;;;5018290;28;20057;-61
2024/01/31 07:31:50;;;;;;;14.32;10.27;;;22.20;33.90;;;;;;5017872;28;20068;-61
2024/01/31 07:34:19;;;;;;;19.15;10.00;;;22.20;33.90;;;;;;5019333;28;20053;-61
2024/01/31 07:36:46;;;;;;;16.40;10.05;;;22.10;33.80;;;;;;5013564;28;20418;-61
2024/01/31 07:39:14;;;;;;;19.65;9.55;;;22.10;33.70;;;;;;5025003;28;20053;-61
2024/01/31 07:41:44;;;;;;;23.90;12.32;;;22.10;33.70;;;;;;5020780;28;20410;-61
2024/01/31 07:44:11;;;;;;;20.45;11.52;;;22.00;33.60;;;;;;5018173;28;20483;-61
2024/01/31 07:46:39;;;;;;;15.30;9.80;;;22.00;33.60;;;;;;5015024;28;20379;-61
2024/01/31 07:49:08;;;;;;;15.55;10.60;;;22.00;33.60;;;;;;5019901;28;20414;-61
2024/01/31 07:51:43;;;;;;;14.80;9.15;;;22.00;33.70;;;;;;5024708;28;20084;-61
2024/01/31 07:54:10;;;;;;;17.30;11.23;;;22.00;33.70;;;;;;5021845;28;20065;-61
2024/01/31 07:56:38;;;;;;;12.48;10.00;;;22.00;33.80;;;;;;5016346;28;20045;-61
2024/01/31 07:59:06;;;;;;;15.75;8.98;;;22.00;33.80;;;;;;5022441;28;20500;-61
2024/01/31 08:01:33;;;;;;;14.48;9.27;;;22.00;33.80;;;;;;5026620;28;20049;-61
2024/01/31 08:04:00;;;;;;;13.65;10.02;;;22.00;33.80;;;;;;5020351;28;20053;-61
2024/01/31 08:06:27;;;;;;;12.15;9.05;;;22.00;33.80;;;;;;5017478;28;20060;-60
2024/01/31 08:08:56;;;;;;;12.38;9.57;;;22.10;33.80;;;;;;5022447;28;20045;-61
2024/01/31 08:11:23;;;;;;;12.40;9.65;;;22.10;33.70;;;;;;5016136;28;20482;-61
2024/01/31 08:13:50;;;;;;;12.02;9.23;;;22.10;33.70;;;;;;5023202;28;20398;-61
2024/01/31 08:16:17;;;;;;;12.00;9.18;;;22.10;33.60;;;;;;5020475;28;20417;-61
2024/01/31 08:18:45;;;;;;;12.32;9.38;;;22.10;33.60;;;;;;5018715;28;20053;-61
2024/01/31 08:21:12;;;;;;;10.32;8.38;;;22.10;33.60;;;;;;5017823;28;20050;-61
2024/01/31 08:23:39;;;;;;;11.50;8.60;;;22.10;33.60;;;;;;5019404;28;20049;-61
2024/01/31 08:26:07;;;;;;;11.68;9.48;;;22.10;33.50;;;;;;5012048;28;20510;-61
2024/01/31 08:28:35;;;;;;;10.65;8.65;;;22.10;33.50;;;;;;5017241;28;20401;-61
2024/01/31 08:31:02;;;;;;;9.85;8.27;;;22.10;33.50;;;;;;5018734;28;20387;-61
2024/01/31 08:33:29;;;;;;;11.15;8.18;;;22.10;33.50;;;;;;5025524;28;20054;-62
2024/01/31 08:35:56;;;;;;;10.52;8.35;;;22.10;34.00;;;;;;5022756;28;20057;-61
2024/01/31 08:38:24;;;;;;;15.73;8.35;;;22.10;34.00;;;;;;5014812;28;20061;-63
2024/01/31 08:40:51;;;;;;;10.05;7.50;;;22.10;33.50;;;;;;5019373;28;20053;-63
2024/01/31 08:43:20;;;;;;;9.57;6.85;;;22.00;33.50;;;;;;5017390;28;20060;-64
2024/01/31 08:45:47;;;;;;;8.88;6.68;;;22.00;33.40;;;;;;5022031;28;20057;-63
2024/01/31 08:48:14;;;;;;;7.57;6.18;;;22.00;33.40;;;;;;5015577;28;20057;-63
2024/01/31 08:50:41;;;;;;;6.53;5.75;;;22.00;33.50;;;;;;5026058;28;20053;-63
2024/01/31 08:53:09;;;;;;;9.68;6.70;;;22.00;33.50;;;;;;5018645;28;20050;-63
2024/01/31 08:55:36;;;;;;;8.52;6.80;;;22.00;33.40;;;;;;5025438;28;20061;-63
2024/01/31 08:58:04;;;;;;;231.70;129.18;;;21.90;33.40;;;;;;5018563;28;20060;-63
2024/01/31 09:00:32;;;;;;;119.63;68.38;;;21.90;33.50;;;;;;5017865;28;20045;-63
2024/01/31 09:03:00;;;;;;;38.97;24.48;;;21.90;33.50;;;;;;5024376;28;20049;-62
2024/01/31 09:05:27;;;;;;;23.90;16.27;;;21.90;33.50;;;;;;5030282;28;20057;-63
2024/01/31 09:07:55;;;;;;;23.80;15.32;;;21.80;33.40;;;;;;5018941;28;20052;-63
2024/01/31 09:10:23;;;;;;;23.63;15.65;;;21.80;33.50;;;;;;5024435;28;20061;-63
2024/01/31 09:12:50;;;;;;;23.38;16.27;;;21.80;34.00;;;;;;5022934;28;20119;-63
2024/01/31 09:15:17;;;;;;;22.95;15.00;;;21.80;33.50;;;;;;5024127;28;20060;-63
2024/01/31 09:17:47;;;;;;;21.52;14.23;;;21.80;33.60;;;;;;5020953;28;20715;-63
2024/01/31 09:20:15;;;;;;;19.55;13.30;;;21.90;33.60;;;;;;5022142;28;20305;-63
2024/01/31 09:22:42;;;;;;;17.40;11.75;;;21.90;33.50;;;;;;5027177;28;20060;-63
2024/01/31 09:25:10;;;;;;;15.40;9.95;;;21.90;33.50;;;;;;5021736;28;20364;-63
2024/01/31 09:27:38;;;;;;;14.15;9.57;;;22.00;33.50;;;;;;5023605;28;20506;-63
2024/01/31 09:30:07;;;;;;;13.18;9.20;;;22.00;33.40;;;;;;5028371;28;20053;-63
2024/01/31 09:32:34;;;;;;;12.70;8.70;;;22.00;33.40;;;;;;5026782;28;20049;-63
2024/01/31 09:35:03;;;;;;;13.50;8.35;;;22.00;33.40;;;;;;5016299;28;20058;-63
2024/01/31 09:37:32;;;;;;;10.60;7.50;;;22.00;33.30;;;;;;5020525;28;20057;-63
2024/01/31 09:39:59;;;;;;;8.32;6.15;;;22.00;33.20;;;;;;5014179;28;20050;-65
2024/01/31 09:42:27;;;;;;;9.35;6.75;;;22.00;33.20;;;;;;5018417;28;20046;-65
2024/01/31 09:44:56;;;;;;;7.75;5.38;;;22.00;33.20;;;;;;5016637;28;20054;-64
2024/01/31 09:47:28;;;;;;;9.77;5.90;;;22.00;33.10;;;;;;5020244;28;20046;-65
2024/01/31 09:49:56;;;;;;;8.32;5.53;;;22.00;33.10;;;;;;5022671;28;20049;-64
2024/01/31 09:52:28;;;;;;;9.82;5.63;;;22.00;33.10;;;;;;5027085;28;20060;-65
2024/01/31 09:54:58;;;;;;;7.20;4.70;;;22.00;33.10;;;;;;5015257;28;20054;-64
2024/01/31 09:57:25;;;;;;;7.63;5.28;;;21.90;33.00;;;;;;5020183;28;20057;-65
2024/01/31 09:59:52;;;;;;;9.10;4.82;;;22.00;33.10;;;;;;5021101;28;20489;-64
2024/01/31 10:02:20;;;;;;;11.30;5.20;;;21.90;33.10;;;;;;5015548;28;20429;-63
2024/01/31 10:04:47;;;;;;;20.83;5.75;;;21.90;33.10;;;;;;5023714;28;20398;-65
2024/01/31 10:07:23;;;;;;;10.25;5.40;;;21.90;33.70;;;;;;5017661;28;20077;-65
2024/01/31 10:09:54;;;;;;;15.25;6.15;;;21.90;33.30;;;;;;5025442;28;20042;-65
2024/01/31 10:12:22;;;;;;;13.20;5.20;;;21.90;33.30;;;;;;5022787;28;20054;-64
2024/01/31 10:14:51;;;;;;;14.88;5.60;;;21.80;33.20;;;;;;5014695;28;20057;-65
2024/01/31 10:17:19;;;;;;;8.10;5.00;;;21.90;33.30;;;;;;5020819;28;20615;-65
2024/01/31 10:20:10;;;;;;;8.52;5.53;;;21.80;33.20;;;;;;5018594;28;20100;-62
2024/01/31 10:22:38;;;;;;;12.05;5.75;;;21.80;33.30;;;;;;5018004;28;20079;-64
2024/01/31 10:25:07;;;;;;;24.35;5.75;;;21.80;33.30;;;;;;5019166;28;20061;-62
2024/01/31 10:27:35;;;;;;;11.00;4.55;;;21.80;33.30;;;;;;5016583;28;20121;-64
2024/01/31 10:30:06;;;;;;;11.48;4.72;;;21.80;33.40;;;;;;5016959;28;20417;-65
2024/01/31 10:32:34;;;;;;;7.75;4.40;;;21.80;33.50;;;;;;5019785;28;20057;-63
2024/01/31 10:35:03;;;;;;;16.33;4.78;;;21.80;33.50;;;;;;5022410;28;20064;-64
2024/01/31 10:37:30;;;;;;;11.18;4.22;;;21.90;33.60;;;;;;5019796;28;20430;-62
2024/01/31 10:39:59;;;;;;;5.28;3.95;;;21.90;33.60;;;;;;5022375;28;20061;-63
2024/01/31 10:42:28;;;;;;;6.38;3.92;;;21.90;33.50;;;;;;5021774;28;20053;-64
2024/01/31 10:44:56;;;;;;;7.18;4.25;;;22.00;33.50;;;;;;5024944;28;20490;-64
2024/01/31 10:47:23;;;;;;;7.18;4.22;;;22.00;33.40;;;;;;5024764;28;20053;-58
2024/01/31 10:49:50;;;;;;;8.48;4.93;;;22.00;33.30;;;;;;5023361;28;20049;-59
2024/01/31 10:52:20;;;;;;;7.85;5.47;;;22.00;33.30;;;;;;5022217;28;20057;-59
2024/01/31 10:54:53;;;;;;;9.38;5.38;;;22.00;33.30;;;;;;5017785;28;20064;-60
2024/01/31 10:57:21;;;;;;;6.75;4.40;;;22.00;33.30;;;;;;5018780;28;20056;-58
2024/01/31 10:59:50;;;;;;;5.53;3.45;;;22.00;33.20;;;;;;5026737;28;20049;-59
2024/01/31 11:02:17;;;;;;;4.80;3.38;;;22.00;33.20;;;;;;5022522;28;20053;-58
2024/01/31 11:04:45;;;;;;;17.58;10.77;;;22.00;33.20;;;;;;5015369;28;20057;-57
2024/01/31 11:07:17;;;;;;;55.90;29.95;;;22.00;33.30;;;;;;5022647;28;20405;-61
2024/01/31 11:09:45;;;;;;;21.95;14.50;;;22.00;33.30;;;;;;5021923;23;20867;-59
2024/01/31 11:12:14;;;;;;;10.55;7.68;;;22.00;33.20;;;;;;4994902;28;20050;-59
2024/01/31 11:14:43;;;;;;;9.80;6.95;;;22.00;33.20;;;;;;4983862;28;20126;-59
2024/01/31 11:17:13;;;;;;;8.52;5.72;;;22.00;33.20;;;;;;4987279;28;20054;-58
2024/01/31 11:19:42;;;;;;;8.93;5.55;;;22.00;33.20;;;;;;4986542;28;20046;-59
2024/01/31 11:22:10;;;;;;;9.18;5.82;;;22.00;33.20;;;;;;4983439;28;20407;-58
2024/01/31 11:24:43;;;;;;;14.20;7.05;;;22.00;33.20;;;;;;4985307;28;20399;-60
2024/01/31 11:27:10;;;;;;;14.35;7.15;;;21.90;33.30;;;;;;4982032;28;20057;-63
2024/01/31 11:29:37;;;;;;;16.10;6.78;;;22.00;33.30;;;;;;4979213;28;20058;-61
2024/01/31 11:32:06;;;;;;;8.55;4.70;;;21.90;33.30;;;;;;4986710;28;20057;-62
2024/01/31 11:34:35;;;;;;;12.85;4.55;;;21.90;33.30;;;;;;4980679;28;20461;-60
2024/01/31 11:37:02;;;;;;;7.35;4.55;;;21.90;33.20;;;;;;4981900;28;20058;-59
2024/01/31 11:39:29;;;;;;;6.45;4.07;;;21.90;33.30;;;;;;4985609;28;20046;-60
2024/01/31 11:41:56;;;;;;;5.25;3.47;;;21.90;33.20;;;;;;4978111;28;20074;-61
2024/01/31 11:44:25;;;;;;;11.50;4.20;;;21.80;33.20;;;;;;4982192;28;20418;-59
2024/01/31 11:46:52;;;;;;;8.20;3.72;;;21.80;33.20;;;;;;4981029;28;20058;-61
2024/01/31 11:49:22;;;;;;;13.50;4.40;;;21.80;33.10;;;;;;4982271;28;20047;-58
2024/01/31 11:51:53;;;;;;;7.85;3.33;;;21.80;33.30;;;;;;4983249;28;20054;-58
2024/01/31 11:54:20;;;;;;;13.30;3.88;;;21.80;33.30;;;;;;4983042;28;20057;-57
2024/01/31 11:56:49;;;;;;;4.05;2.55;;;21.80;33.40;;;;;;4978438;28;20051;-58
2024/01/31 11:59:17;;;;;;;4.80;2.92;;;21.80;33.40;;;;;;4980993;28;20058;-59
2024/01/31 12:01:44;;;;;;;4.15;2.72;;;21.80;33.50;;;;;;4984060;28;20514;-59
2024/01/31 12:04:13;;;;;;;5.28;2.33;;;21.90;33.50;;;;;;4986546;28;20050;-57
2024/01/31 12:06:40;;;;;;;7.82;2.53;;;21.90;33.50;;;;;;4986876;28;20517;-62
2024/01/31 12:09:09;;;;;;;5.97;2.28;;;21.90;33.50;;;;;;4982809;28;20054;-60
2024/01/31 12:11:37;;;;;;;5.20;2.10;;;22.00;33.50;;;;;;4977172;28;20062;-61
2024/01/31 12:14:05;;;;;;;3.78;1.90;;;22.00;33.40;;;;;;4985774;28;20065;-61
2024/01/31 12:16:40;;;;;;;3.25;2.13;;;22.00;33.40;;;;;;4981412;28;20058;-62
2024/01/31 12:19:10;;;;;;;2.35;1.70;;;22.00;33.40;;;;;;4981106;28;20415;-62
2024/01/31 12:21:42;;;;;;;4.25;1.80;;;22.00;33.30;;;;;;4984873;28;20135;-60
2024/01/31 12:24:10;;;;;;;2.35;1.70;;;22.00;33.30;;;;;;4978152;28;20046;-59
2024/01/31 12:26:38;;;;;;;2.17;1.98;;;22.00;33.20;;;;;;4982574;28;20055;-59
2024/01/31 12:29:05;;;;;;;2.90;1.75;;;22.00;33.20;;;;;;4988382;28;20058;-59
2024/01/31 12:31:32;;;;;;;5.35;1.75;;;22.00;33.20;;;;;;4987345;28;20051;-59
2024/01/31 12:34:02;;;;;;;2.85;1.45;;;22.00;33.20;;;;;;4986634;28;20061;-59
2024/01/31 12:36:29;;;;;;;1.75;1.38;;;22.00;33.20;;;;;;4986787;28;20077;-60
2024/01/31 12:38:56;;;;;;;2.17;1.70;;;22.00;33.20;;;;;;4986175;28;20121;-60
2024/01/31 12:41:25;;;;;;;2.22;1.52;;;22.00;33.20;;;;;;4984398;28;20992;-60
2024/01/31 12:43:52;;;;;;;6.30;1.40;;;22.00;33.10;;;;;;4981909;28;20062;-60